createdAt,value
2017-10-18T05:58:12.545Z,11.03
2017-10-18T06:00:41.685Z,11.70
2017-10-18T06:03:10.020Z,12.37
2017-10-18T06:05:39.379Z,11.50
2017-10-18T06:08:07.961Z,11.93
2017-10-18T06:10:36.306Z,10.63
2017-10-18T06:13:06.050Z,10.33
2017-10-18T06:15:34.412Z,11.43
2017-10-18T06:18:02.774Z,11.03
2017-10-18T06:20:31.681Z,11.27
2017-10-18T06:23:00.028Z,12.03
2017-10-18T06:25:28.406Z,10.53
2017-10-18T06:27:56.846Z,10.10
2017-10-18T06:30:25.607Z,11.40
2017-10-18T06:32:54.120Z,10.07
2017-10-18T06:35:23.198Z,11.37
2017-10-18T06:37:51.577Z,10.47
2017-10-18T06:40:19.923Z,10.03
2017-10-18T06:42:49.140Z,11.17
2017-10-18T06:45:17.501Z,11.33
2017-10-18T06:47:45.853Z,10.10
2017-10-18T06:50:14.232Z,11.20
2017-10-18T06:52:43.426Z,10.17
2017-10-18T06:55:11.882Z,11.03
2017-10-18T06:57:40.258Z,10.97
2017-10-18T07:00:08.600Z,11.10
2017-10-18T07:02:36.936Z,11.63
2017-10-18T07:05:05.383Z,12.80
2017-10-18T07:07:34.541Z,11.80
2017-10-18T07:10:02.879Z,9.97
2017-10-18T07:12:31.260Z,12.27
2017-10-18T07:14:59.594Z,12.07
2017-10-18T07:17:28.725Z,10.90
2017-10-18T07:19:57.097Z,11.37
2017-10-18T07:22:25.804Z,11.90
2017-10-18T07:24:55.069Z,12.23
2017-10-18T07:27:23.602Z,13.27
2017-10-18T07:29:51.963Z,12.07
2017-10-18T07:32:20.292Z,11.87
2017-10-18T07:34:48.876Z,12.67
2017-10-18T07:37:17.231Z,11.70
2017-10-18T07:39:45.614Z,12.37
2017-10-18T07:42:13.989Z,11.33
2017-10-18T07:44:43.256Z,12.20
2017-10-18T07:47:12.645Z,12.87
2017-10-18T07:49:41.918Z,12.70
2017-10-18T07:52:10.317Z,12.97
2017-10-18T07:54:38.864Z,11.27
2017-10-18T07:57:07.242Z,11.70
2017-10-18T07:59:36.419Z,12.87
2017-10-18T08:02:04.799Z,11.67
2017-10-18T08:04:33.143Z,11.87
2017-10-18T08:07:01.768Z,13.13
2017-10-18T08:09:30.541Z,12.20
2017-10-18T08:11:59.001Z,12.10
2017-10-18T08:14:27.349Z,12.80
2017-10-18T08:16:55.703Z,13.97
2017-10-18T08:19:24.069Z,12.37
2017-10-18T08:21:52.416Z,12.93
2017-10-18T08:24:20.763Z,12.60
2017-10-18T08:26:49.364Z,11.10
2017-10-18T08:29:17.711Z,12.67
2017-10-18T08:31:46.065Z,12.10
2017-10-18T08:34:14.797Z,12.07
2017-10-18T08:36:44.615Z,12.20
2017-10-18T08:39:14.165Z,10.70
2017-10-18T08:41:42.528Z,12.03
2017-10-18T08:44:10.874Z,10.50
2017-10-18T08:46:40.025Z,10.87
2017-10-18T08:49:09.885Z,12.07
2017-10-18T08:51:37.529Z,10.40
2017-10-18T08:54:05.862Z,11.33
2017-10-18T08:56:35.257Z,9.83
2017-10-18T08:59:03.598Z,10.13
2017-10-18T09:01:31.932Z,9.00
2017-10-18T09:04:00.319Z,10.23
2017-10-18T09:06:28.731Z,9.80
2017-10-18T09:08:57.078Z,9.27
2017-10-18T09:11:25.456Z,9.77
2017-10-18T09:13:53.834Z,8.90
2017-10-18T09:16:22.202Z,10.70
2017-10-18T09:18:51.228Z,8.80
2017-10-18T09:21:19.567Z,10.13
2017-10-18T09:23:47.930Z,9.20
2017-10-18T09:26:17.071Z,11.13
2017-10-18T09:28:45.416Z,10.67
2017-10-18T09:31:13.794Z,9.30
2017-10-18T09:33:42.223Z,9.10
2017-10-18T09:36:11.108Z,8.90
2017-10-18T09:38:39.437Z,9.10
2017-10-18T09:41:08.910Z,9.67
2017-10-18T09:43:37.285Z,9.80
2017-10-18T09:46:06.345Z,10.10
2017-10-18T09:48:34.727Z,9.83
2017-10-18T09:51:03.098Z,9.43
2017-10-18T09:53:31.448Z,8.40
2017-10-18T09:56:00.582Z,9.97
2017-10-18T09:58:28.917Z,10.00
2017-10-18T10:00:57.265Z,9.00
2017-10-18T10:03:25.861Z,8.57
2017-10-18T10:05:54.232Z,7.17
2017-10-18T10:08:23.349Z,7.93
2017-10-18T10:10:51.709Z,6.67
2017-10-18T10:13:20.040Z,7.53
2017-10-18T10:15:48.388Z,7.40
2017-10-18T10:18:17.528Z,6.47
2017-10-18T10:20:45.895Z,6.93
2017-10-18T10:23:15.128Z,6.70
2017-10-18T10:25:43.881Z,7.53
2017-10-18T10:28:12.232Z,5.30
2017-10-18T10:30:41.354Z,6.23
2017-10-18T10:33:09.709Z,7.07
2017-10-18T10:35:38.047Z,7.20
2017-10-18T10:38:07.097Z,7.87
2017-10-18T10:40:36.242Z,7.90
2017-10-18T10:43:04.573Z,7.47
2017-10-18T10:45:32.893Z,5.23
2017-10-18T10:48:01.330Z,6.00
2017-10-18T10:50:30.434Z,5.87
2017-10-18T10:52:59.030Z,6.23
2017-10-18T10:55:27.396Z,6.17
2017-10-18T10:57:55.742Z,6.30
2017-10-18T11:00:24.093Z,6.37
2017-10-18T11:02:52.481Z,6.20
2017-10-18T11:05:21.650Z,6.40
2017-10-18T11:07:49.992Z,6.20
2017-10-18T11:10:19.272Z,6.40
2017-10-18T11:12:48.040Z,6.70
2017-10-18T11:15:16.377Z,6.13
2017-10-18T11:17:45.668Z,6.20
2017-10-18T11:20:14.763Z,6.40
2017-10-18T11:22:43.122Z,6.77
2017-10-18T11:25:11.484Z,6.30
2017-10-18T11:27:39.837Z,5.43
2017-10-18T11:30:08.191Z,7.10
2017-10-18T11:32:36.733Z,7.47
2017-10-18T11:35:05.075Z,5.83
2017-10-18T11:37:33.658Z,5.83
2017-10-18T11:40:02.044Z,5.70
2017-10-18T11:42:30.539Z,6.90
2017-10-18T11:44:58.866Z,6.30
2017-10-18T11:47:28.008Z,6.00
2017-10-18T11:49:56.507Z,7.07
2017-10-18T11:52:25.651Z,6.43
2017-10-18T11:54:54.188Z,4.17
2017-10-18T11:57:22.558Z,5.93
2017-10-18T11:59:50.914Z,5.67
2017-10-18T12:02:19.290Z,6.23
2017-10-18T12:04:47.629Z,6.80
2017-10-18T12:07:15.957Z,5.83
2017-10-18T12:09:44.327Z,6.80
2017-10-18T12:12:12.673Z,5.60
2017-10-18T12:14:41.800Z,5.30
2017-10-18T12:17:10.282Z,4.97
2017-10-18T12:19:38.625Z,4.93
2017-10-18T12:22:07.734Z,5.70
2017-10-18T12:24:36.865Z,6.27
2017-10-18T12:27:05.221Z,5.10
2017-10-18T12:29:33.557Z,5.47
2017-10-18T12:32:01.923Z,5.50
2017-10-18T12:34:30.284Z,5.80
2017-10-18T12:36:58.629Z,5.50
2017-10-18T12:39:27.246Z,4.90
2017-10-18T12:41:55.594Z,5.80
2017-10-18T12:44:24.034Z,4.30
2017-10-18T12:46:52.413Z,5.40
2017-10-18T12:49:20.754Z,4.80
2017-10-18T12:51:49.093Z,5.90
2017-10-18T12:54:18.226Z,4.80
2017-10-18T12:56:46.571Z,6.63
2017-10-18T12:59:15.697Z,6.20
2017-10-18T13:01:44.189Z,4.70
2017-10-18T13:04:12.522Z,5.47
2017-10-18T13:06:41.643Z,5.53
2017-10-18T13:09:10.270Z,5.63
2017-10-18T13:11:38.614Z,5.30
2017-10-18T13:14:06.957Z,7.77
2017-10-18T13:16:35.366Z,7.73
2017-10-18T13:19:03.719Z,6.30
2017-10-18T13:21:32.067Z,8.20
2017-10-18T13:24:00.516Z,7.83
2017-10-18T13:26:28.864Z,8.17
2017-10-18T13:28:57.991Z,9.57
2017-10-18T13:31:26.362Z,9.77
2017-10-18T13:33:54.713Z,13.47
2017-10-18T13:36:24.694Z,12.33
2017-10-18T13:38:53.068Z,13.67
2017-10-18T13:41:21.487Z,13.43
2017-10-18T13:43:49.844Z,12.60
2017-10-18T13:46:18.439Z,15.33
2017-10-18T13:48:47.242Z,15.60
2017-10-18T13:51:16.360Z,16.27
2017-10-18T13:53:44.732Z,16.47
2017-10-18T13:56:13.104Z,17.93
2017-10-18T13:58:42.219Z,16.27
2017-10-18T14:01:10.625Z,9.90
2017-10-18T14:03:38.962Z,10.23
2017-10-18T14:06:07.333Z,7.93
2017-10-18T14:08:36.878Z,7.23
2017-10-18T14:11:05.215Z,5.47
2017-10-18T14:13:34.408Z,5.77
2017-10-18T14:16:03.554Z,5.93
2017-10-18T14:18:31.902Z,8.03
2017-10-18T14:21:00.233Z,7.30
2017-10-18T14:23:28.617Z,8.03
2017-10-18T14:25:57.008Z,6.00
2017-10-18T14:28:25.354Z,6.50
2017-10-18T14:30:54.003Z,6.03
2017-10-18T14:33:22.367Z,7.17
2017-10-18T14:35:50.715Z,7.53
2017-10-18T14:38:19.100Z,6.97
2017-10-18T14:40:47.460Z,6.80
2017-10-18T14:43:16.487Z,5.80
2017-10-18T14:45:44.886Z,7.50
2017-10-18T14:48:14.236Z,6.90
2017-10-18T14:50:42.598Z,8.43
2017-10-18T14:53:11.126Z,7.53
2017-10-18T14:55:40.241Z,7.67
2017-10-18T14:58:09.369Z,7.30
2017-10-18T15:00:37.751Z,7.40
2017-10-18T15:03:06.679Z,7.27
2017-10-18T15:05:35.030Z,7.23
2017-10-18T15:08:04.514Z,6.60
2017-10-18T15:10:32.866Z,6.27
2017-10-18T15:13:01.985Z,8.23
2017-10-18T15:15:31.195Z,7.90
2017-10-18T15:18:00.324Z,7.70
2017-10-18T15:20:28.666Z,7.53
2017-10-18T15:22:57.041Z,7.20
2017-10-18T15:25:25.452Z,7.63
2017-10-18T15:27:53.808Z,8.03
2017-10-18T15:30:22.177Z,7.73
2017-10-18T15:32:51.305Z,9.10
2017-10-18T15:35:19.658Z,7.23
2017-10-18T15:37:48.234Z,8.20
2017-10-18T15:40:16.611Z,8.20
2017-10-18T15:42:45.721Z,7.33
2017-10-18T15:45:14.088Z,8.10
2017-10-18T15:47:43.269Z,9.80
2017-10-18T15:50:11.609Z,8.10
2017-10-18T15:52:39.997Z,10.07
2017-10-18T15:55:08.354Z,9.97
2017-10-18T15:57:36.713Z,10.13
2017-10-18T16:00:05.259Z,8.77
2017-10-18T16:02:33.618Z,8.10
2017-10-18T16:05:02.791Z,9.07
2017-10-18T16:07:31.182Z,9.23
2017-10-18T16:09:59.517Z,9.07
2017-10-18T16:12:28.667Z,8.67
2017-10-18T16:14:57.535Z,8.20
2017-10-18T16:17:25.886Z,8.37
2017-10-18T16:19:54.245Z,8.80
2017-10-18T16:22:22.796Z,9.10
2017-10-18T16:24:51.141Z,8.43
2017-10-18T16:27:19.506Z,9.80
2017-10-18T16:29:47.938Z,9.73
2017-10-18T16:32:16.265Z,9.27
2017-10-18T16:34:45.403Z,9.00
2017-10-18T16:37:13.793Z,8.60
2017-10-18T16:39:42.231Z,8.30
2017-10-18T16:42:10.605Z,9.70
2017-10-18T16:44:39.216Z,9.73
2017-10-18T16:47:07.560Z,9.10
2017-10-18T16:49:36.701Z,8.90
2017-10-18T16:52:05.083Z,8.50
2017-10-18T16:54:33.427Z,10.00
2017-10-18T16:57:01.788Z,8.43
2017-10-18T16:59:30.961Z,8.90
2017-10-18T17:01:59.661Z,8.17
2017-10-18T17:04:28.788Z,8.00
2017-10-18T17:06:57.302Z,8.73
2017-10-18T17:09:26.680Z,9.83
2017-10-18T17:11:55.025Z,8.97
2017-10-18T17:14:23.388Z,9.60
2017-10-18T17:16:51.749Z,9.97
2017-10-18T17:19:20.158Z,12.80
2017-10-18T17:21:48.557Z,9.90
2017-10-18T17:24:17.657Z,10.30
2017-10-18T17:26:46.758Z,10.70
2017-10-18T17:29:15.206Z,11.33
2017-10-18T17:31:43.573Z,11.40
2017-10-18T17:34:12.135Z,13.37
2017-10-18T17:36:40.557Z,15.80
2017-10-18T17:39:09.038Z,14.73
2017-10-18T17:41:37.398Z,14.50
2017-10-18T17:44:05.771Z,14.50
2017-10-18T17:46:34.139Z,11.70
2017-10-18T17:49:02.497Z,10.70
2017-10-18T17:51:31.069Z,10.97
2017-10-18T17:53:59.411Z,11.63
2017-10-18T17:56:28.555Z,12.93
2017-10-18T17:58:56.928Z,14.53
2017-10-18T18:01:25.312Z,14.00
2017-10-18T18:03:53.696Z,14.43
2017-10-18T18:06:22.149Z,14.33
2017-10-18T18:08:50.515Z,15.77
2017-10-18T18:11:19.620Z,17.77
2017-10-18T18:13:48.424Z,18.20
2017-10-18T18:16:16.787Z,19.33
2017-10-18T18:18:45.926Z,18.70
2017-10-18T18:21:14.343Z,18.53
2017-10-18T18:23:42.910Z,17.43
2017-10-18T18:26:11.513Z,16.20
2017-10-18T18:28:39.941Z,14.67
2017-10-18T18:31:09.124Z,14.60
2017-10-18T18:33:38.414Z,15.47
2017-10-18T18:36:06.925Z,15.40
2017-10-18T18:38:35.274Z,16.03
2017-10-18T18:41:04.596Z,14.47
2017-10-18T18:43:32.998Z,14.37
2017-10-18T18:46:01.567Z,13.33
2017-10-18T18:48:30.159Z,12.70
2017-10-18T18:50:58.556Z,14.97
2017-10-18T18:53:26.922Z,13.77
2017-10-18T18:55:55.250Z,15.33
2017-10-18T18:58:23.714Z,14.27
2017-10-18T19:00:52.166Z,14.47
2017-10-18T19:03:20.527Z,15.20
2017-10-18T19:05:48.913Z,15.73
2017-10-18T19:08:17.261Z,15.90
2017-10-18T19:10:46.376Z,16.37
2017-10-18T19:13:14.757Z,16.03
2017-10-18T19:15:43.133Z,15.97
2017-10-18T19:18:11.567Z,15.77
2017-10-18T19:20:40.023Z,15.07
2017-10-18T19:23:08.391Z,15.67
2017-10-18T19:25:36.756Z,16.63
2017-10-18T19:28:05.169Z,16.13
2017-10-18T19:30:33.562Z,14.30
2017-10-18T19:33:01.932Z,14.67
2017-10-18T19:35:30.304Z,14.20
2017-10-18T19:37:58.674Z,17.70
2017-10-18T19:40:27.059Z,15.03
2017-10-18T19:42:55.585Z,15.43
2017-10-18T19:45:25.682Z,15.03
2017-10-18T19:47:54.226Z,15.33
2017-10-18T19:50:23.432Z,15.73
2017-10-18T19:52:51.802Z,15.20
2017-10-18T19:55:20.166Z,15.33
2017-10-18T19:57:48.560Z,15.40
2017-10-18T20:00:16.901Z,16.23
2017-10-18T20:02:45.275Z,16.10
2017-10-18T20:05:13.762Z,15.00
2017-10-18T20:07:42.125Z,15.53
2017-10-18T20:10:10.498Z,16.00
2017-10-18T20:12:38.858Z,15.53
2017-10-18T20:15:07.206Z,15.63
2017-10-18T20:17:36.332Z,17.07
2017-10-18T20:20:04.717Z,19.97
2017-10-18T20:22:33.126Z,18.97
2017-10-18T20:25:01.476Z,20.67
2017-10-18T20:27:30.564Z,21.33
2017-10-18T20:29:58.936Z,19.33
2017-10-18T20:32:27.313Z,18.87
2017-10-18T20:34:55.710Z,15.87
2017-10-18T20:37:24.088Z,15.67
2017-10-18T20:39:52.463Z,14.50
2017-10-18T20:42:20.873Z,14.80
2017-10-18T20:44:49.242Z,15.30
2017-10-18T20:47:17.617Z,12.43
2017-10-18T20:49:46.635Z,12.93
2017-10-18T20:52:15.079Z,13.03
2017-10-18T20:54:43.576Z,14.33
2017-10-18T20:57:12.136Z,12.30
2017-10-18T20:59:40.714Z,14.60
2017-10-18T21:02:09.122Z,12.77
2017-10-18T21:04:37.532Z,14.00
2017-10-18T21:07:06.271Z,14.63
2017-10-18T21:09:34.800Z,14.63
2017-10-18T21:12:03.372Z,13.70
2017-10-18T21:14:32.443Z,13.67
2017-10-18T21:17:00.828Z,15.03
2017-10-18T21:19:29.255Z,14.43
2017-10-18T21:21:57.668Z,13.27
2017-10-18T21:24:26.022Z,12.87
2017-10-18T21:26:55.227Z,14.77
2017-10-18T21:29:23.612Z,12.83
2017-10-18T21:31:51.959Z,13.97
2017-10-18T21:34:21.061Z,13.33
2017-10-18T21:36:50.223Z,14.97
2017-10-18T21:39:18.575Z,14.70
2017-10-18T21:41:46.964Z,15.60
2017-10-18T21:44:15.534Z,16.07
2017-10-18T21:46:43.889Z,15.60
2017-10-18T21:49:13.046Z,14.63
2017-10-18T21:51:41.403Z,13.43
2017-10-18T21:54:09.762Z,13.23
2017-10-18T21:56:38.322Z,13.47
2017-10-18T21:59:06.681Z,15.17
2017-10-18T22:01:35.044Z,13.60
2017-10-18T22:04:03.468Z,14.37
2017-10-18T22:06:31.845Z,14.57
2017-10-18T22:09:00.960Z,13.20
2017-10-18T22:11:29.466Z,16.40
2017-10-18T22:13:57.814Z,14.83
2017-10-18T22:16:26.163Z,15.17
2017-10-18T22:18:54.992Z,15.03
2017-10-18T22:21:23.388Z,15.13
2017-10-18T22:23:54.093Z,16.53
2017-10-18T22:26:22.499Z,14.73
2017-10-18T22:28:50.865Z,15.17
2017-10-18T22:31:19.235Z,15.80
2017-10-18T22:33:47.618Z,14.80
2017-10-18T22:36:15.994Z,14.70
2017-10-18T22:38:44.337Z,15.90
2017-10-18T22:41:13.629Z,14.97
2017-10-18T22:43:42.901Z,14.17
2017-10-18T22:46:11.261Z,15.30
2017-10-18T22:48:40.065Z,15.17
2017-10-18T22:51:08.429Z,13.90
2017-10-18T22:53:37.236Z,14.60
2017-10-18T22:56:05.625Z,15.30
2017-10-18T22:58:35.492Z,14.00
2017-10-18T23:01:03.844Z,13.47
2017-10-18T23:03:32.328Z,14.07
2017-10-18T23:06:00.707Z,13.37
2017-10-18T23:08:29.045Z,14.50
2017-10-18T23:10:57.413Z,14.63
2017-10-18T23:13:25.769Z,13.70
2017-10-18T23:15:54.860Z,13.23
2017-10-18T23:18:23.253Z,14.23
2017-10-18T23:20:51.608Z,14.60
2017-10-18T23:23:19.979Z,14.47
2017-10-18T23:25:48.794Z,14.90
2017-10-18T23:28:17.169Z,14.50
2017-10-18T23:30:46.265Z,14.17
2017-10-18T23:33:14.652Z,13.93
2017-10-18T23:35:43.016Z,14.57
2017-10-18T23:38:12.110Z,14.37
2017-10-18T23:40:41.248Z,15.10
2017-10-18T23:43:09.601Z,14.70
2017-10-18T23:45:37.954Z,15.30
2017-10-18T23:48:06.497Z,14.27
2017-10-18T23:50:34.838Z,14.63
2017-10-18T23:53:03.195Z,15.10
2017-10-18T23:55:31.597Z,14.73
2017-10-18T23:57:59.949Z,14.40
